Aviation Digital Data Service (ADDS)

Output produced by METARs form (0435 UTC 03 September 2014)
found at http://aviationweather.gov/adds/metars/
 
KMPV 030241Z 0303/0324 32010KT 2SM RA BR VCTS BKN006 OVC030CB 
     TEMPO 0303/0304 5SM -RA BR SCT006 OVC020 
     FM030400 31008KT 5SM -RA BR SCT006 OVC020 
     FM030600 VRB03KT 6SM BR BKN030 
     FM030800 VRB03KT 3SM BR BKN010 
     FM031200 29009KT P6SM BKN050 
     FM031400 30010G16KT P6SM SCT050